sensor_id;sensor_type;location;lat;lon;timestamp;P1;durP1;ratioP1;P2;durP2;ratioP2
16826;SDS011;8530;49.540;8.576;2024-03-25T00:01:40;5.80;;;4.60;;
16826;SDS011;8530;49.540;8.576;2024-03-25T00:04:06;7.13;;;4.20;;
16826;SDS011;8530;49.540;8.576;2024-03-25T00:06:33;7.03;;;4.03;;
16826;SDS011;8530;49.540;8.576;2024-03-25T00:09:00;5.40;;;4.10;;
16826;SDS011;8530;49.540;8.576;2024-03-25T00:11:28;6.00;;;4.07;;
16826;SDS011;8530;49.540;8.576;2024-03-25T00:13:54;7.00;;;4.70;;
16826;SDS011;8530;49.540;8.576;2024-03-25T00:16:21;5.97;;;3.77;;
16826;SDS011;8530;49.540;8.576;2024-03-25T00:18:47;9.13;;;3.90;;
16826;SDS011;8530;49.540;8.576;2024-03-25T00:21:14;5.07;;;4.57;;
16826;SDS011;8530;49.540;8.576;2024-03-25T00:23:39;4.57;;;4.17;;
16826;SDS011;8530;49.540;8.576;2024-03-25T00:26:07;4.93;;;4.03;;
16826;SDS011;8530;49.540;8.576;2024-03-25T00:28:33;8.00;;;4.30;;
16826;SDS011;8530;49.540;8.576;2024-03-25T00:31:00;6.03;;;4.77;;
16826;SDS011;8530;49.540;8.576;2024-03-25T00:33:26;7.23;;;5.67;;
16826;SDS011;8530;49.540;8.576;2024-03-25T00:35:52;6.13;;;4.70;;
16826;SDS011;8530;49.540;8.576;2024-03-25T00:38:18;6.10;;;5.37;;
16826;SDS011;8530;49.540;8.576;2024-03-25T00:40:45;5.30;;;3.93;;
16826;SDS011;8530;49.540;8.576;2024-03-25T00:43:13;7.83;;;4.60;;
16826;SDS011;8530;49.540;8.576;2024-03-25T00:45:39;5.03;;;4.53;;
16826;SDS011;8530;49.540;8.576;2024-03-25T00:48:07;10.73;;;4.57;;
16826;SDS011;8530;49.540;8.576;2024-03-25T00:50:32;6.67;;;3.93;;
16826;SDS011;8530;49.540;8.576;2024-03-25T00:52:59;5.10;;;4.60;;
16826;SDS011;8530;49.540;8.576;2024-03-25T00:55:25;6.97;;;4.47;;
16826;SDS011;8530;49.540;8.576;2024-03-25T00:57:52;6.40;;;4.17;;
16826;SDS011;8530;49.540;8.576;2024-03-25T01:00:19;6.00;;;4.70;;
16826;SDS011;8530;49.540;8.576;2024-03-25T01:02:46;8.43;;;5.20;;
16826;SDS011;8530;49.540;8.576;2024-03-25T01:05:12;6.07;;;4.30;;
16826;SDS011;8530;49.540;8.576;2024-03-25T01:07:39;4.60;;;4.20;;
16826;SDS011;8530;49.540;8.576;2024-03-25T01:10:05;5.33;;;4.80;;
16826;SDS011;8530;49.540;8.576;2024-03-25T01:12:32;10.50;;;5.47;;
16826;SDS011;8530;49.540;8.576;2024-03-25T01:14:58;6.10;;;5.07;;
16826;SDS011;8530;49.540;8.576;2024-03-25T01:17:26;4.63;;;4.00;;
16826;SDS011;8530;49.540;8.576;2024-03-25T01:19:52;9.83;;;5.27;;
16826;SDS011;8530;49.540;8.576;2024-03-25T01:22:19;5.87;;;5.27;;
16826;SDS011;8530;49.540;8.576;2024-03-25T01:24:45;11.50;;;6.23;;
16826;SDS011;8530;49.540;8.576;2024-03-25T01:27:11;7.53;;;5.47;;
16826;SDS011;8530;49.540;8.576;2024-03-25T01:29:37;9.33;;;5.90;;
16826;SDS011;8530;49.540;8.576;2024-03-25T01:32:04;13.53;;;5.53;;
16826;SDS011;8530;49.540;8.576;2024-03-25T01:34:31;5.80;;;5.20;;
16826;SDS011;8530;49.540;8.576;2024-03-25T01:36:58;7.57;;;4.80;;
16826;SDS011;8530;49.540;8.576;2024-03-25T01:39:24;9.20;;;6.30;;
16826;SDS011;8530;49.540;8.576;2024-03-25T01:41:51;8.03;;;5.70;;
16826;SDS011;8530;49.540;8.576;2024-03-25T01:44:16;7.10;;;5.40;;
16826;SDS011;8530;49.540;8.576;2024-03-25T01:46:43;8.57;;;6.00;;
16826;SDS011;8530;49.540;8.576;2024-03-25T01:49:09;6.20;;;5.13;;
16826;SDS011;8530;49.540;8.576;2024-03-25T01:51:38;11.10;;;5.97;;
16826;SDS011;8530;49.540;8.576;2024-03-25T01:54:05;9.93;;;5.93;;
16826;SDS011;8530;49.540;8.576;2024-03-25T01:56:33;9.97;;;6.27;;
16826;SDS011;8530;49.540;8.576;2024-03-25T01:59:01;7.60;;;4.83;;
16826;SDS011;8530;49.540;8.576;2024-03-25T02:01:29;7.30;;;6.23;;
16826;SDS011;8530;49.540;8.576;2024-03-25T02:03:55;6.60;;;5.27;;
16826;SDS011;8530;49.540;8.576;2024-03-25T02:06:24;8.27;;;5.90;;
16826;SDS011;8530;49.540;8.576;2024-03-25T02:08:54;17.30;;;5.77;;
16826;SDS011;8530;49.540;8.576;2024-03-25T02:11:22;7.67;;;6.67;;
16826;SDS011;8530;49.540;8.576;2024-03-25T02:13:48;10.17;;;6.43;;
16826;SDS011;8530;49.540;8.576;2024-03-25T02:16:16;10.83;;;5.50;;
16826;SDS011;8530;49.540;8.576;2024-03-25T02:18:42;8.23;;;5.70;;
16826;SDS011;8530;49.540;8.576;2024-03-25T02:21:08;11.40;;;5.60;;
16826;SDS011;8530;49.540;8.576;2024-03-25T02:23:35;11.00;;;5.77;;
16826;SDS011;8530;49.540;8.576;2024-03-25T02:26:06;11.47;;;5.17;;
16826;SDS011;8530;49.540;8.576;2024-03-25T02:28:31;8.23;;;4.60;;
16826;SDS011;8530;49.540;8.576;2024-03-25T02:30:58;6.30;;;4.63;;
16826;SDS011;8530;49.540;8.576;2024-03-25T02:33:24;8.50;;;4.73;;
16826;SDS011;8530;49.540;8.576;2024-03-25T02:35:50;9.83;;;5.10;;
16826;SDS011;8530;49.540;8.576;2024-03-25T02:38:16;12.10;;;5.60;;
16826;SDS011;8530;49.540;8.576;2024-03-25T02:40:44;7.23;;;5.90;;
16826;SDS011;8530;49.540;8.576;2024-03-25T02:43:11;9.10;;;6.80;;
16826;SDS011;8530;49.540;8.576;2024-03-25T02:45:38;7.10;;;5.60;;
16826;SDS011;8530;49.540;8.576;2024-03-25T02:48:04;12.33;;;5.67;;
16826;SDS011;8530;49.540;8.576;2024-03-25T02:50:31;7.13;;;5.50;;
16826;SDS011;8530;49.540;8.576;2024-03-25T02:52:57;12.03;;;5.37;;
16826;SDS011;8530;49.540;8.576;2024-03-25T02:55:24;8.10;;;5.10;;
16826;SDS011;8530;49.540;8.576;2024-03-25T02:57:49;6.07;;;4.80;;
16826;SDS011;8530;49.540;8.576;2024-03-25T03:00:17;7.17;;;4.97;;
16826;SDS011;8530;49.540;8.576;2024-03-25T03:02:43;7.00;;;5.67;;
16826;SDS011;8530;49.540;8.576;2024-03-25T03:05:10;6.67;;;5.23;;
16826;SDS011;8530;49.540;8.576;2024-03-25T03:07:36;7.17;;;5.63;;
16826;SDS011;8530;49.540;8.576;2024-03-25T03:10:02;11.87;;;9.00;;
16826;SDS011;8530;49.540;8.576;2024-03-25T03:12:28;11.50;;;6.70;;
16826;SDS011;8530;49.540;8.576;2024-03-25T03:14:55;8.97;;;5.80;;
16826;SDS011;8530;49.540;8.576;2024-03-25T03:17:22;13.50;;;6.47;;
16826;SDS011;8530;49.540;8.576;2024-03-25T03:19:49;8.73;;;6.20;;
16826;SDS011;8530;49.540;8.576;2024-03-25T03:22:14;10.67;;;6.00;;
16826;SDS011;8530;49.540;8.576;2024-03-25T03:24:41;8.43;;;5.70;;
16826;SDS011;8530;49.540;8.576;2024-03-25T03:27:07;7.30;;;5.03;;
16826;SDS011;8530;49.540;8.576;2024-03-25T03:29:34;13.77;;;6.93;;
16826;SDS011;8530;49.540;8.576;2024-03-25T03:32:00;6.77;;;4.70;;
16826;SDS011;8530;49.540;8.576;2024-03-25T03:34:28;12.83;;;6.90;;
16826;SDS011;8530;49.540;8.576;2024-03-25T03:36:53;11.87;;;5.13;;
16826;SDS011;8530;49.540;8.576;2024-03-25T03:39:20;7.30;;;5.33;;
16826;SDS011;8530;49.540;8.576;2024-03-25T03:41:46;12.13;;;6.77;;
16826;SDS011;8530;49.540;8.576;2024-03-25T03:44:13;8.80;;;5.30;;
16826;SDS011;8530;49.540;8.576;2024-03-25T03:46:40;6.33;;;5.73;;
16826;SDS011;8530;49.540;8.576;2024-03-25T03:49:06;7.90;;;6.30;;
16826;SDS011;8530;49.540;8.576;2024-03-25T03:51:34;7.00;;;5.10;;
16826;SDS011;8530;49.540;8.576;2024-03-25T03:54:00;8.27;;;5.77;;
16826;SDS011;8530;49.540;8.576;2024-03-25T03:56:26;9.63;;;6.90;;
16826;SDS011;8530;49.540;8.576;2024-03-25T03:58:53;8.47;;;6.30;;
16826;SDS011;8530;49.540;8.576;2024-03-25T04:01:18;9.00;;;6.47;;
16826;SDS011;8530;49.540;8.576;2024-03-25T04:03:45;9.83;;;6.70;;
16826;SDS011;8530;49.540;8.576;2024-03-25T04:06:12;9.07;;;5.90;;
16826;SDS011;8530;49.540;8.576;2024-03-25T04:08:39;6.73;;;6.10;;
16826;SDS011;8530;49.540;8.576;2024-03-25T04:11:06;6.93;;;6.23;;
16826;SDS011;8530;49.540;8.576;2024-03-25T04:13:33;10.83;;;5.97;;
16826;SDS011;8530;49.540;8.576;2024-03-25T04:16:00;10.90;;;7.10;;
16826;SDS011;8530;49.540;8.576;2024-03-25T04:18:27;10.60;;;6.33;;
16826;SDS011;8530;49.540;8.576;2024-03-25T04:20:54;13.97;;;6.80;;
16826;SDS011;8530;49.540;8.576;2024-03-25T04:23:20;11.33;;;6.07;;
16826;SDS011;8530;49.540;8.576;2024-03-25T04:25:48;8.67;;;6.67;;
16826;SDS011;8530;49.540;8.576;2024-03-25T04:28:14;9.57;;;6.47;;
16826;SDS011;8530;49.540;8.576;2024-03-25T04:30:41;8.00;;;6.67;;
16826;SDS011;8530;49.540;8.576;2024-03-25T04:33:07;14.23;;;8.60;;
16826;SDS011;8530;49.540;8.576;2024-03-25T04:35:34;11.70;;;9.13;;
16826;SDS011;8530;49.540;8.576;2024-03-25T04:38:00;9.33;;;6.57;;
16826;SDS011;8530;49.540;8.576;2024-03-25T04:40:26;15.43;;;8.03;;
16826;SDS011;8530;49.540;8.576;2024-03-25T04:42:53;9.43;;;6.60;;
16826;SDS011;8530;49.540;8.576;2024-03-25T04:45:19;10.20;;;7.33;;
16826;SDS011;8530;49.540;8.576;2024-03-25T04:47:45;11.40;;;6.40;;
16826;SDS011;8530;49.540;8.576;2024-03-25T04:50:11;10.20;;;7.40;;
16826;SDS011;8530;49.540;8.576;2024-03-25T04:52:36;9.87;;;7.47;;
16826;SDS011;8530;49.540;8.576;2024-03-25T04:55:02;8.43;;;6.60;;
16826;SDS011;8530;49.540;8.576;2024-03-25T04:57:28;15.27;;;9.50;;
16826;SDS011;8530;49.540;8.576;2024-03-25T04:59:56;15.10;;;7.60;;
16826;SDS011;8530;49.540;8.576;2024-03-25T05:02:21;15.27;;;7.50;;
16826;SDS011;8530;49.540;8.576;2024-03-25T05:04:47;12.20;;;8.47;;
16826;SDS011;8530;49.540;8.576;2024-03-25T05:07:13;16.33;;;9.67;;
16826;SDS011;8530;49.540;8.576;2024-03-25T05:09:39;15.80;;;9.80;;
16826;SDS011;8530;49.540;8.576;2024-03-25T05:12:05;11.27;;;8.97;;
16826;SDS011;8530;49.540;8.576;2024-03-25T05:14:31;11.77;;;8.60;;
16826;SDS011;8530;49.540;8.576;2024-03-25T05:16:58;13.37;;;9.30;;
16826;SDS011;8530;49.540;8.576;2024-03-25T05:19:24;14.17;;;9.13;;
16826;SDS011;8530;49.540;8.576;2024-03-25T05:21:49;11.40;;;8.20;;
16826;SDS011;8530;49.540;8.576;2024-03-25T05:24:15;14.00;;;10.43;;
16826;SDS011;8530;49.540;8.576;2024-03-25T05:26:41;9.57;;;7.97;;
16826;SDS011;8530;49.540;8.576;2024-03-25T05:29:07;15.43;;;9.50;;
16826;SDS011;8530;49.540;8.576;2024-03-25T05:31:33;16.70;;;9.90;;
16826;SDS011;8530;49.540;8.576;2024-03-25T05:34:00;15.13;;;9.40;;
16826;SDS011;8530;49.540;8.576;2024-03-25T05:36:26;15.83;;;9.43;;
16826;SDS011;8530;49.540;8.576;2024-03-25T05:38:52;16.17;;;9.00;;
16826;SDS011;8530;49.540;8.576;2024-03-25T05:41:18;10.80;;;8.87;;
16826;SDS011;8530;49.540;8.576;2024-03-25T05:43:43;15.50;;;9.37;;
16826;SDS011;8530;49.540;8.576;2024-03-25T05:46:09;13.43;;;10.30;;
16826;SDS011;8530;49.540;8.576;2024-03-25T05:48:35;19.43;;;9.83;;
16826;SDS011;8530;49.540;8.576;2024-03-25T05:51:03;13.03;;;9.77;;
16826;SDS011;8530;49.540;8.576;2024-03-25T05:53:30;19.47;;;8.90;;
16826;SDS011;8530;49.540;8.576;2024-03-25T05:55:56;17.30;;;9.83;;
16826;SDS011;8530;49.540;8.576;2024-03-25T05:58:22;10.70;;;9.13;;
16826;SDS011;8530;49.540;8.576;2024-03-25T06:00:48;17.80;;;8.77;;
16826;SDS011;8530;49.540;8.576;2024-03-25T06:03:14;13.20;;;9.50;;
16826;SDS011;8530;49.540;8.576;2024-03-25T06:05:39;15.83;;;10.00;;
16826;SDS011;8530;49.540;8.576;2024-03-25T06:08:07;14.07;;;8.40;;
16826;SDS011;8530;49.540;8.576;2024-03-25T06:10:37;12.70;;;9.50;;
16826;SDS011;8530;49.540;8.576;2024-03-25T06:13:02;16.80;;;8.40;;
16826;SDS011;8530;49.540;8.576;2024-03-25T06:15:28;11.30;;;7.83;;
16826;SDS011;8530;49.540;8.576;2024-03-25T06:17:54;9.90;;;8.23;;
16826;SDS011;8530;49.540;8.576;2024-03-25T06:20:20;12.10;;;7.63;;
16826;SDS011;8530;49.540;8.576;2024-03-25T06:22:46;17.73;;;9.13;;
16826;SDS011;8530;49.540;8.576;2024-03-25T06:25:13;18.57;;;9.00;;
16826;SDS011;8530;49.540;8.576;2024-03-25T06:27:39;10.33;;;8.30;;
16826;SDS011;8530;49.540;8.576;2024-03-25T06:30:06;11.40;;;8.10;;
16826;SDS011;8530;49.540;8.576;2024-03-25T06:32:51;11.87;;;8.50;;
16826;SDS011;8530;49.540;8.576;2024-03-25T06:35:35;11.07;;;7.03;;
16826;SDS011;8530;49.540;8.576;2024-03-25T06:38:01;11.17;;;6.10;;
16826;SDS011;8530;49.540;8.576;2024-03-25T06:40:28;10.50;;;5.97;;
16826;SDS011;8530;49.540;8.576;2024-03-25T06:42:54;9.00;;;4.87;;
16826;SDS011;8530;49.540;8.576;2024-03-25T06:45:19;6.60;;;4.90;;
16826;SDS011;8530;49.540;8.576;2024-03-25T06:47:45;5.57;;;4.47;;
16826;SDS011;8530;49.540;8.576;2024-03-25T06:50:11;11.33;;;4.90;;
16826;SDS011;8530;49.540;8.576;2024-03-25T06:52:37;7.83;;;4.07;;
16826;SDS011;8530;49.540;8.576;2024-03-25T06:55:03;9.07;;;4.10;;
16826;SDS011;8530;49.540;8.576;2024-03-25T06:57:31;8.07;;;4.73;;
16826;SDS011;8530;49.540;8.576;2024-03-25T06:59:57;7.57;;;5.50;;
16826;SDS011;8530;49.540;8.576;2024-03-25T07:02:23;9.63;;;3.90;;
16826;SDS011;8530;49.540;8.576;2024-03-25T07:04:48;6.67;;;4.60;;
16826;SDS011;8530;49.540;8.576;2024-03-25T07:07:14;9.40;;;4.73;;
16826;SDS011;8530;49.540;8.576;2024-03-25T07:09:40;9.33;;;3.67;;
16826;SDS011;8530;49.540;8.576;2024-03-25T07:12:06;7.97;;;4.57;;
16826;SDS011;8530;49.540;8.576;2024-03-25T07:14:34;9.23;;;3.90;;
16826;SDS011;8530;49.540;8.576;2024-03-25T07:17:00;8.63;;;4.20;;
16826;SDS011;8530;49.540;8.576;2024-03-25T07:19:26;6.10;;;4.20;;
16826;SDS011;8530;49.540;8.576;2024-03-25T07:21:51;6.17;;;4.17;;
16826;SDS011;8530;49.540;8.576;2024-03-25T07:24:17;8.13;;;4.90;;
16826;SDS011;8530;49.540;8.576;2024-03-25T07:26:43;5.43;;;4.18;;
16826;SDS011;8530;49.540;8.576;2024-03-25T07:29:09;7.05;;;3.40;;
16826;SDS011;8530;49.540;8.576;2024-03-25T07:31:36;5.20;;;4.30;;
16826;SDS011;8530;49.540;8.576;2024-03-25T07:34:02;5.78;;;3.90;;
16826;SDS011;8530;49.540;8.576;2024-03-25T07:36:28;4.55;;;3.70;;
16826;SDS011;8530;49.540;8.576;2024-03-25T07:38:54;6.43;;;3.70;;
16826;SDS011;8530;49.540;8.576;2024-03-25T07:41:19;5.57;;;3.42;;
16826;SDS011;8530;49.540;8.576;2024-03-25T07:43:45;5.13;;;3.78;;
16826;SDS011;8530;49.540;8.576;2024-03-25T07:46:11;5.10;;;3.78;;
16826;SDS011;8530;49.540;8.576;2024-03-25T07:48:38;6.25;;;4.22;;
16826;SDS011;8530;49.540;8.576;2024-03-25T07:51:04;6.45;;;3.50;;
16826;SDS011;8530;49.540;8.576;2024-03-25T07:53:30;7.18;;;3.95;;
16826;SDS011;8530;49.540;8.576;2024-03-25T07:55:56;8.57;;;4.63;;
16826;SDS011;8530;49.540;8.576;2024-03-25T07:58:21;7.07;;;4.45;;
16826;SDS011;8530;49.540;8.576;2024-03-25T08:00:47;5.20;;;3.33;;
16826;SDS011;8530;49.540;8.576;2024-03-25T08:03:13;9.43;;;3.85;;
16826;SDS011;8530;49.540;8.576;2024-03-25T08:05:40;5.55;;;4.03;;
16826;SDS011;8530;49.540;8.576;2024-03-25T08:08:06;5.72;;;3.97;;
16826;SDS011;8530;49.540;8.576;2024-03-25T08:10:32;5.75;;;3.55;;
16826;SDS011;8530;49.540;8.576;2024-03-25T08:12:57;6.20;;;3.95;;
16826;SDS011;8530;49.540;8.576;2024-03-25T08:15:23;5.05;;;3.47;;
16826;SDS011;8530;49.540;8.576;2024-03-25T08:17:49;6.30;;;3.63;;
16826;SDS011;8530;49.540;8.576;2024-03-25T08:20:15;6.80;;;3.67;;
16826;SDS011;8530;49.540;8.576;2024-03-25T08:22:42;6.27;;;3.90;;
16826;SDS011;8530;49.540;8.576;2024-03-25T08:25:08;6.93;;;4.40;;
16826;SDS011;8530;49.540;8.576;2024-03-25T08:27:34;5.95;;;3.90;;
16826;SDS011;8530;49.540;8.576;2024-03-25T08:30:00;6.63;;;3.75;;
16826;SDS011;8530;49.540;8.576;2024-03-25T08:32:26;7.93;;;3.63;;
16826;SDS011;8530;49.540;8.576;2024-03-25T08:34:51;9.93;;;4.73;;
16826;SDS011;8530;49.540;8.576;2024-03-25T08:37:17;9.23;;;4.17;;
16826;SDS011;8530;49.540;8.576;2024-03-25T08:39:44;8.03;;;4.07;;
16826;SDS011;8530;49.540;8.576;2024-03-25T08:42:11;8.97;;;4.10;;
16826;SDS011;8530;49.540;8.576;2024-03-25T08:44:36;8.83;;;4.73;;
16826;SDS011;8530;49.540;8.576;2024-03-25T08:47:02;9.97;;;4.60;;
16826;SDS011;8530;49.540;8.576;2024-03-25T08:49:28;10.13;;;5.27;;
16826;SDS011;8530;49.540;8.576;2024-03-25T08:51:54;6.93;;;3.97;;
16826;SDS011;8530;49.540;8.576;2024-03-25T08:54:20;7.90;;;4.60;;
16826;SDS011;8530;49.540;8.576;2024-03-25T08:56:47;10.93;;;4.13;;
16826;SDS011;8530;49.540;8.576;2024-03-25T08:59:13;9.23;;;5.17;;
16826;SDS011;8530;49.540;8.576;2024-03-25T09:01:39;9.00;;;5.37;;
16826;SDS011;8530;49.540;8.576;2024-03-25T09:04:04;11.47;;;5.70;;
16826;SDS011;8530;49.540;8.576;2024-03-25T09:06:30;11.30;;;5.20;;
16826;SDS011;8530;49.540;8.576;2024-03-25T09:08:56;11.37;;;6.23;;
16826;SDS011;8530;49.540;8.576;2024-03-25T09:11:41;8.40;;;4.70;;
16826;SDS011;8530;49.540;8.576;2024-03-25T09:14:08;9.37;;;4.37;;
16826;SDS011;8530;49.540;8.576;2024-03-25T09:16:33;18.87;;;7.33;;
16826;SDS011;8530;49.540;8.576;2024-03-25T09:18:59;7.17;;;4.80;;
16826;SDS011;8530;49.540;8.576;2024-03-25T09:21:25;7.40;;;4.40;;
16826;SDS011;8530;49.540;8.576;2024-03-25T09:23:51;7.90;;;4.57;;
16826;SDS011;8530;49.540;8.576;2024-03-25T09:26:17;10.43;;;4.87;;
16826;SDS011;8530;49.540;8.576;2024-03-25T09:28:42;15.27;;;5.87;;
16826;SDS011;8530;49.540;8.576;2024-03-25T09:31:10;7.90;;;5.10;;
16826;SDS011;8530;49.540;8.576;2024-03-25T09:33:35;12.87;;;5.60;;
16826;SDS011;8530;49.540;8.576;2024-03-25T09:36:01;13.37;;;5.60;;
16826;SDS011;8530;49.540;8.576;2024-03-25T09:38:27;8.83;;;5.00;;
16826;SDS011;8530;49.540;8.576;2024-03-25T09:40:53;9.23;;;5.87;;
16826;SDS011;8530;49.540;8.576;2024-03-25T09:43:22;6.13;;;4.20;;
16826;SDS011;8530;49.540;8.576;2024-03-25T09:45:50;10.83;;;6.40;;
16826;SDS011;8530;49.540;8.576;2024-03-25T09:48:18;9.80;;;4.50;;
16826;SDS011;8530;49.540;8.576;2024-03-25T09:50:46;9.90;;;4.87;;
16826;SDS011;8530;49.540;8.576;2024-03-25T09:53:14;11.30;;;5.33;;
16826;SDS011;8530;49.540;8.576;2024-03-25T09:55:40;8.60;;;4.60;;
16826;SDS011;8530;49.540;8.576;2024-03-25T09:58:05;7.90;;;4.10;;
16826;SDS011;8530;49.540;8.576;2024-03-25T10:00:32;7.90;;;5.17;;
16826;SDS011;8530;49.540;8.576;2024-03-25T10:02:58;8.23;;;5.27;;
16826;SDS011;8530;49.540;8.576;2024-03-25T10:05:25;7.53;;;5.23;;
16826;SDS011;8530;49.540;8.576;2024-03-25T10:07:51;11.30;;;6.30;;
16826;SDS011;8530;49.540;8.576;2024-03-25T10:10:18;6.87;;;4.20;;
16826;SDS011;8530;49.540;8.576;2024-03-25T10:12:45;9.30;;;4.50;;
16826;SDS011;8530;49.540;8.576;2024-03-25T10:15:14;8.53;;;3.70;;
16826;SDS011;8530;49.540;8.576;2024-03-25T10:17:40;10.27;;;5.43;;
16826;SDS011;8530;49.540;8.576;2024-03-25T10:20:07;7.17;;;4.50;;
16826;SDS011;8530;49.540;8.576;2024-03-25T10:22:41;9.13;;;4.60;;
16826;SDS011;8530;49.540;8.576;2024-03-25T10:25:07;7.97;;;4.30;;
16826;SDS011;8530;49.540;8.576;2024-03-25T10:27:52;5.77;;;4.27;;
16826;SDS011;8530;49.540;8.576;2024-03-25T10:30:19;10.77;;;4.40;;
16826;SDS011;8530;49.540;8.576;2024-03-25T10:32:44;7.17;;;4.47;;
16826;SDS011;8530;49.540;8.576;2024-03-25T10:35:10;11.93;;;4.10;;
16826;SDS011;8530;49.540;8.576;2024-03-25T10:37:38;9.60;;;5.40;;
16826;SDS011;8530;49.540;8.576;2024-03-25T10:40:06;5.97;;;4.33;;
16826;SDS011;8530;49.540;8.576;2024-03-25T10:42:35;5.10;;;4.17;;
16826;SDS011;8530;49.540;8.576;2024-03-25T10:45:04;8.17;;;4.30;;
16826;SDS011;8530;49.540;8.576;2024-03-25T10:47:33;7.80;;;4.53;;
16826;SDS011;8530;49.540;8.576;2024-03-25T10:50:00;8.73;;;5.00;;
16826;SDS011;8530;49.540;8.576;2024-03-25T10:52:33;7.70;;;4.43;;
16826;SDS011;8530;49.540;8.576;2024-03-25T10:54:59;7.70;;;4.17;;
16826;SDS011;8530;49.540;8.576;2024-03-25T10:57:27;9.97;;;4.30;;
16826;SDS011;8530;49.540;8.576;2024-03-25T10:59:54;6.93;;;3.77;;
16826;SDS011;8530;49.540;8.576;2024-03-25T11:02:22;7.57;;;4.23;;
16826;SDS011;8530;49.540;8.576;2024-03-25T11:04:48;6.17;;;4.40;;
16826;SDS011;8530;49.540;8.576;2024-03-25T11:07:15;6.87;;;5.10;;
16826;SDS011;8530;49.540;8.576;2024-03-25T11:09:41;9.63;;;4.93;;
16826;SDS011;8530;49.540;8.576;2024-03-25T11:12:09;6.80;;;3.43;;
16826;SDS011;8530;49.540;8.576;2024-03-25T11:14:38;8.23;;;3.63;;
16826;SDS011;8530;49.540;8.576;2024-03-25T11:17:13;5.70;;;4.43;;
16826;SDS011;8530;49.540;8.576;2024-03-25T11:19:40;7.77;;;4.70;;
16826;SDS011;8530;49.540;8.576;2024-03-25T11:22:06;11.07;;;4.67;;
16826;SDS011;8530;49.540;8.576;2024-03-25T11:24:34;9.13;;;3.80;;
16826;SDS011;8530;49.540;8.576;2024-03-25T11:27:00;5.60;;;3.83;;
16826;SDS011;8530;49.540;8.576;2024-03-25T11:29:26;6.30;;;4.03;;
16826;SDS011;8530;49.540;8.576;2024-03-25T11:31:53;8.77;;;3.60;;
16826;SDS011;8530;49.540;8.576;2024-03-25T11:34:23;5.20;;;3.40;;
16826;SDS011;8530;49.540;8.576;2024-03-25T11:36:49;3.53;;;2.73;;
16826;SDS011;8530;49.540;8.576;2024-03-25T11:39:15;8.90;;;3.47;;
16826;SDS011;8530;49.540;8.576;2024-03-25T11:41:41;5.90;;;3.90;;
16826;SDS011;8530;49.540;8.576;2024-03-25T11:44:08;6.40;;;3.60;;
16826;SDS011;8530;49.540;8.576;2024-03-25T11:46:36;9.20;;;3.90;;
16826;SDS011;8530;49.540;8.576;2024-03-25T11:49:03;8.10;;;4.13;;
16826;SDS011;8530;49.540;8.576;2024-03-25T11:51:30;10.20;;;4.73;;
16826;SDS011;8530;49.540;8.576;2024-03-25T11:53:56;5.43;;;3.00;;
16826;SDS011;8530;49.540;8.576;2024-03-25T11:56:22;5.87;;;3.77;;
16826;SDS011;8530;49.540;8.576;2024-03-25T11:58:48;8.63;;;4.60;;
16826;SDS011;8530;49.540;8.576;2024-03-25T12:01:14;4.37;;;3.60;;
16826;SDS011;8530;49.540;8.576;2024-03-25T12:03:40;6.03;;;4.30;;
16826;SDS011;8530;49.540;8.576;2024-03-25T12:06:07;7.30;;;4.07;;
16826;SDS011;8530;49.540;8.576;2024-03-25T12:08:33;6.60;;;4.97;;
16826;SDS011;8530;49.540;8.576;2024-03-25T12:10:59;7.20;;;4.17;;
16826;SDS011;8530;49.540;8.576;2024-03-25T12:13:43;10.10;;;4.33;;
16826;SDS011;8530;49.540;8.576;2024-03-25T12:16:09;6.30;;;3.97;;
16826;SDS011;8530;49.540;8.576;2024-03-25T12:18:35;5.00;;;3.47;;
16826;SDS011;8530;49.540;8.576;2024-03-25T12:21:01;5.70;;;3.93;;
16826;SDS011;8530;49.540;8.576;2024-03-25T12:23:31;8.37;;;5.83;;
16826;SDS011;8530;49.540;8.576;2024-03-25T12:25:58;6.27;;;4.30;;
16826;SDS011;8530;49.540;8.576;2024-03-25T12:28:24;14.53;;;6.10;;
16826;SDS011;8530;49.540;8.576;2024-03-25T12:30:51;8.23;;;4.50;;
16826;SDS011;8530;49.540;8.576;2024-03-25T12:33:17;8.60;;;4.70;;
16826;SDS011;8530;49.540;8.576;2024-03-25T12:35:44;5.57;;;4.10;;
16826;SDS011;8530;49.540;8.576;2024-03-25T12:38:21;10.27;;;4.70;;
16826;SDS011;8530;49.540;8.576;2024-03-25T12:40:48;6.93;;;3.43;;
16826;SDS011;8530;49.540;8.576;2024-03-25T12:43:14;4.17;;;3.77;;
16826;SDS011;8530;49.540;8.576;2024-03-25T12:45:40;4.60;;;3.63;;
16826;SDS011;8530;49.540;8.576;2024-03-25T12:48:06;9.83;;;4.40;;
16826;SDS011;8530;49.540;8.576;2024-03-25T12:50:32;6.20;;;3.77;;
16826;SDS011;8530;49.540;8.576;2024-03-25T12:52:58;5.33;;;3.10;;
16826;SDS011;8530;49.540;8.576;2024-03-25T12:55:24;5.23;;;2.93;;
16826;SDS011;8530;49.540;8.576;2024-03-25T12:57:51;4.80;;;3.23;;
16826;SDS011;8530;49.540;8.576;2024-03-25T13:00:17;4.97;;;3.40;;
16826;SDS011;8530;49.540;8.576;2024-03-25T13:02:43;5.00;;;3.43;;
16826;SDS011;8530;49.540;8.576;2024-03-25T13:05:09;9.57;;;4.50;;
16826;SDS011;8530;49.540;8.576;2024-03-25T13:07:35;5.03;;;3.00;;
16826;SDS011;8530;49.540;8.576;2024-03-25T13:10:01;5.00;;;3.20;;
16826;SDS011;8530;49.540;8.576;2024-03-25T13:12:28;8.90;;;3.50;;
16826;SDS011;8530;49.540;8.576;2024-03-25T13:14:55;5.80;;;2.90;;
16826;SDS011;8530;49.540;8.576;2024-03-25T13:17:21;5.63;;;3.27;;
16826;SDS011;8530;49.540;8.576;2024-03-25T13:19:46;5.53;;;3.10;;
16826;SDS011;8530;49.540;8.576;2024-03-25T13:22:12;4.17;;;3.50;;
16826;SDS011;8530;49.540;8.576;2024-03-25T13:24:38;5.30;;;3.10;;
16826;SDS011;8530;49.540;8.576;2024-03-25T13:27:04;5.77;;;3.40;;
16826;SDS011;8530;49.540;8.576;2024-03-25T13:29:30;10.13;;;3.37;;
16826;SDS011;8530;49.540;8.576;2024-03-25T13:31:57;3.90;;;3.50;;
16826;SDS011;8530;49.540;8.576;2024-03-25T13:34:23;6.43;;;3.40;;
16826;SDS011;8530;49.540;8.576;2024-03-25T13:36:49;10.10;;;3.40;;
16826;SDS011;8530;49.540;8.576;2024-03-25T13:39:15;6.67;;;4.50;;
16826;SDS011;8530;49.540;8.576;2024-03-25T13:41:40;6.70;;;3.10;;
16826;SDS011;8530;49.540;8.576;2024-03-25T13:44:06;8.40;;;3.30;;
16826;SDS011;8530;49.540;8.576;2024-03-25T13:46:32;7.37;;;5.83;;
16826;SDS011;8530;49.540;8.576;2024-03-25T13:48:59;7.57;;;4.43;;
16826;SDS011;8530;49.540;8.576;2024-03-25T13:51:25;4.93;;;3.20;;
16826;SDS011;8530;49.540;8.576;2024-03-25T13:53:51;5.57;;;3.73;;
16826;SDS011;8530;49.540;8.576;2024-03-25T13:56:17;21.30;;;19.33;;
16826;SDS011;8530;49.540;8.576;2024-03-25T13:58:43;3.87;;;3.43;;
16826;SDS011;8530;49.540;8.576;2024-03-25T14:01:08;10.03;;;4.13;;
16826;SDS011;8530;49.540;8.576;2024-03-25T14:03:34;4.77;;;2.90;;
16826;SDS011;8530;49.540;8.576;2024-03-25T14:06:02;9.57;;;3.07;;
16826;SDS011;8530;49.540;8.576;2024-03-25T14:08:28;3.80;;;3.03;;
16826;SDS011;8530;49.540;8.576;2024-03-25T14:10:57;9.33;;;4.00;;
16826;SDS011;8530;49.540;8.576;2024-03-25T14:13:24;8.03;;;3.03;;
16826;SDS011;8530;49.540;8.576;2024-03-25T14:15:50;4.93;;;3.53;;
16826;SDS011;8530;49.540;8.576;2024-03-25T14:18:15;4.80;;;3.10;;
16826;SDS011;8530;49.540;8.576;2024-03-25T14:20:41;6.53;;;3.30;;
16826;SDS011;8530;49.540;8.576;2024-03-25T14:23:09;8.80;;;3.87;;
16826;SDS011;8530;49.540;8.576;2024-03-25T14:25:35;4.23;;;2.73;;
16826;SDS011;8530;49.540;8.576;2024-03-25T14:28:00;6.63;;;3.70;;
16826;SDS011;8530;49.540;8.576;2024-03-25T14:30:26;6.40;;;3.60;;
16826;SDS011;8530;49.540;8.576;2024-03-25T14:32:52;10.50;;;3.33;;
16826;SDS011;8530;49.540;8.576;2024-03-25T14:35:18;5.40;;;3.33;;
16826;SDS011;8530;49.540;8.576;2024-03-25T14:37:44;5.80;;;3.20;;
16826;SDS011;8530;49.540;8.576;2024-03-25T14:40:11;4.60;;;3.20;;
16826;SDS011;8530;49.540;8.576;2024-03-25T14:42:38;6.00;;;2.80;;
16826;SDS011;8530;49.540;8.576;2024-03-25T14:45:04;5.70;;;3.10;;
16826;SDS011;8530;49.540;8.576;2024-03-25T14:47:30;5.70;;;3.80;;
16826;SDS011;8530;49.540;8.576;2024-03-25T14:49:56;4.00;;;2.90;;
16826;SDS011;8530;49.540;8.576;2024-03-25T14:52:22;6.23;;;3.57;;
16826;SDS011;8530;49.540;8.576;2024-03-25T14:54:47;5.40;;;3.20;;